createdAt,value
2023-04-27T00:02:06.310Z,2.40
2023-04-27T00:04:35.703Z,2.13
2023-04-27T00:07:03.641Z,2.20
2023-04-27T00:09:31.432Z,2.07
2023-04-27T00:11:59.314Z,2.60
2023-04-27T00:14:28.538Z,2.07
2023-04-27T00:16:56.854Z,2.00
2023-04-27T00:19:24.678Z,2.10
2023-04-27T00:21:53.834Z,2.20
2023-04-27T00:24:21.666Z,2.10
2023-04-27T00:26:49.648Z,2.23
2023-04-27T00:29:17.482Z,2.33
2023-04-27T00:31:45.520Z,2.13
2023-04-27T00:34:13.467Z,1.90
2023-04-27T00:36:41.254Z,1.90
2023-04-27T00:39:10.833Z,2.33
2023-04-27T00:41:39.671Z,1.80
2023-04-27T00:44:07.562Z,2.17
2023-04-27T00:46:36.124Z,2.00
2023-04-27T00:49:04.130Z,1.83
2023-04-27T00:51:32.193Z,2.40
2023-04-27T00:54:00.977Z,2.20
2023-04-27T00:56:30.200Z,2.10
2023-04-27T00:58:58.147Z,2.10
2023-04-27T01:01:26.895Z,2.00
2023-04-27T01:03:55.636Z,2.40
2023-04-27T01:06:23.678Z,1.63
2023-04-27T01:08:51.566Z,1.90
2023-04-27T01:11:19.963Z,1.90
2023-04-27T01:13:49.646Z,1.97
2023-04-27T01:16:19.422Z,2.13
2023-04-27T01:18:48.735Z,2.03
2023-04-27T01:21:16.580Z,2.30
2023-04-27T01:23:46.007Z,2.03
2023-04-27T01:26:16.258Z,1.73
2023-04-27T01:28:44.501Z,2.20
2023-04-27T01:31:12.736Z,2.00
2023-04-27T01:33:40.923Z,2.10
2023-04-27T01:36:10.530Z,1.90
2023-04-27T01:38:38.545Z,2.30
2023-04-27T01:41:09.247Z,2.23
2023-04-27T01:43:38.036Z,2.37
2023-04-27T01:46:09.765Z,2.00
2023-04-27T01:48:38.123Z,2.30
2023-04-27T01:51:06.174Z,2.10
2023-04-27T01:53:34.138Z,2.50
2023-04-27T01:56:02.063Z,2.10
2023-04-27T01:58:31.497Z,1.77
2023-04-27T02:00:59.337Z,2.67
2023-04-27T02:03:27.302Z,1.80
2023-04-27T02:05:55.448Z,2.20
2023-04-27T02:08:23.313Z,2.33
2023-04-27T02:10:51.266Z,1.90
2023-04-27T02:13:19.136Z,2.43
2023-04-27T02:15:49.009Z,2.17
2023-04-27T02:18:16.940Z,2.10
2023-04-27T02:20:44.721Z,2.37
2023-04-27T02:23:12.999Z,2.50
2023-04-27T02:25:44.553Z,2.37
2023-04-27T02:28:12.663Z,2.50
2023-04-27T02:30:41.348Z,2.20
2023-04-27T02:33:10.604Z,2.10
2023-04-27T02:35:38.506Z,2.33
2023-04-27T02:38:06.670Z,2.87
2023-04-27T02:40:34.950Z,2.10
2023-04-27T02:43:02.752Z,2.73
2023-04-27T02:45:30.768Z,2.50
2023-04-27T02:47:58.582Z,2.43
2023-04-27T02:50:27.758Z,2.27
2023-04-27T02:52:55.766Z,2.57
2023-04-27T02:55:23.556Z,2.33
2023-04-27T02:57:51.503Z,2.53
2023-04-27T03:00:19.855Z,2.80
2023-04-27T03:02:47.948Z,2.60
2023-04-27T03:05:16.129Z,2.30
2023-04-27T03:07:45.695Z,2.90
2023-04-27T03:10:13.666Z,2.00
2023-04-27T03:12:41.532Z,1.87
2023-04-27T03:15:10.507Z,2.30
2023-04-27T03:17:38.318Z,2.23
2023-04-27T03:20:09.609Z,2.20
2023-04-27T03:22:37.462Z,2.60
2023-04-27T03:25:07.798Z,2.23
2023-04-27T03:27:35.648Z,2.73
2023-04-27T03:30:04.435Z,2.90
2023-04-27T03:32:32.306Z,2.73
2023-04-27T03:35:00.158Z,2.60
2023-04-27T03:37:28.249Z,2.90
2023-04-27T03:39:56.076Z,2.80
2023-04-27T03:42:25.358Z,2.90
2023-04-27T03:44:53.206Z,2.80
2023-04-27T03:47:21.905Z,2.60
2023-04-27T03:49:51.024Z,2.80
2023-04-27T03:52:18.790Z,3.37
2023-04-27T03:54:47.691Z,2.80
2023-04-27T03:57:16.239Z,2.87
2023-04-27T03:59:45.948Z,2.73
2023-04-27T04:02:14.696Z,2.67
2023-04-27T04:04:42.949Z,3.00
2023-04-27T04:07:11.833Z,3.03
2023-04-27T04:09:39.647Z,2.87
2023-04-27T04:12:07.953Z,2.90
2023-04-27T04:14:35.810Z,2.80
2023-04-27T04:17:05.063Z,2.70
2023-04-27T04:19:34.678Z,2.77
2023-04-27T04:22:02.530Z,3.27
2023-04-27T04:24:30.301Z,3.10
2023-04-27T04:26:58.620Z,2.97
2023-04-27T04:29:27.210Z,3.17
2023-04-27T04:31:56.392Z,3.37
2023-04-27T04:34:25.581Z,3.03
2023-04-27T04:36:53.433Z,3.13
2023-04-27T04:39:21.507Z,3.40
2023-04-27T04:41:50.412Z,3.37
2023-04-27T04:44:18.210Z,2.57
2023-04-27T04:46:47.029Z,3.27
2023-04-27T04:49:15.090Z,4.00
2023-04-27T04:51:46.231Z,3.50
2023-04-27T04:54:14.625Z,3.50
2023-04-27T04:56:42.527Z,3.23
2023-04-27T04:59:10.640Z,3.50
2023-04-27T05:01:38.565Z,3.07
2023-04-27T05:04:06.726Z,3.57
2023-04-27T05:06:35.158Z,4.17
2023-04-27T05:09:05.131Z,3.73
2023-04-27T05:11:32.931Z,3.30
2023-04-27T05:14:00.906Z,3.90
2023-04-27T05:16:28.762Z,4.10
2023-04-27T05:18:56.571Z,4.43
2023-04-27T05:21:24.396Z,4.10
2023-04-27T05:23:52.256Z,4.50
2023-04-27T05:26:21.612Z,4.27
2023-04-27T05:28:50.710Z,4.27
2023-04-27T05:31:18.794Z,4.10
2023-04-27T05:33:46.951Z,4.50
2023-04-27T05:36:14.913Z,4.67
2023-04-27T05:38:43.668Z,4.70
2023-04-27T05:41:11.786Z,5.00
2023-04-27T05:43:40.989Z,5.23
2023-04-27T05:46:09.295Z,5.70
2023-04-27T05:48:37.187Z,5.67
2023-04-27T05:51:05.606Z,6.00
2023-04-27T05:53:34.367Z,5.03
2023-04-27T05:56:04.330Z,4.93
2023-04-27T05:58:32.902Z,6.33
2023-04-27T06:01:03.535Z,4.77
2023-04-27T06:03:31.680Z,4.87
2023-04-27T06:06:01.328Z,4.80
2023-04-27T06:08:29.537Z,4.17
2023-04-27T06:10:57.797Z,4.30
2023-04-27T06:13:25.894Z,4.33
2023-04-27T06:15:53.788Z,4.37
2023-04-27T06:18:23.093Z,4.30
2023-04-27T06:20:51.382Z,4.20
2023-04-27T06:23:19.321Z,4.10
2023-04-27T06:25:47.521Z,5.73
2023-04-27T06:28:15.941Z,4.20
2023-04-27T06:30:43.767Z,4.10
2023-04-27T06:33:11.699Z,4.60
2023-04-27T06:35:41.223Z,3.80
2023-04-27T06:38:09.015Z,4.23
2023-04-27T06:40:37.811Z,4.30
2023-04-27T06:43:05.718Z,4.07
2023-04-27T06:45:33.525Z,4.23
2023-04-27T06:48:01.441Z,3.60
2023-04-27T06:50:29.350Z,3.70
2023-04-27T06:52:58.766Z,3.90
2023-04-27T06:55:26.638Z,3.90
2023-04-27T06:57:54.496Z,3.53
2023-04-27T07:00:22.860Z,3.67
2023-04-27T07:02:51.818Z,3.60
2023-04-27T07:05:20.034Z,3.27
2023-04-27T07:07:48.707Z,3.40
2023-04-27T07:10:17.986Z,2.77
2023-04-27T07:12:46.116Z,3.83
2023-04-27T07:15:15.111Z,3.17
2023-04-27T07:17:42.993Z,3.00
2023-04-27T07:20:10.942Z,3.20
2023-04-27T07:22:38.857Z,2.93
2023-04-27T07:25:07.488Z,2.73
2023-04-27T07:27:38.316Z,2.63
2023-04-27T07:30:09.355Z,2.83
2023-04-27T07:32:38.311Z,3.00
2023-04-27T07:35:07.105Z,2.50
2023-04-27T07:37:34.951Z,2.53
2023-04-27T07:40:06.050Z,2.67
2023-04-27T07:42:33.872Z,2.77
2023-04-27T07:45:03.123Z,2.07
2023-04-27T07:47:31.013Z,2.63
2023-04-27T07:49:58.793Z,2.53
2023-04-27T07:52:26.660Z,2.70
2023-04-27T07:54:54.577Z,2.50
2023-04-27T07:57:22.550Z,2.40
2023-04-27T07:59:50.931Z,2.50
2023-04-27T08:02:20.580Z,2.33
2023-04-27T08:04:49.522Z,2.33
2023-04-27T08:07:18.171Z,2.00
2023-04-27T08:09:46.170Z,2.37
2023-04-27T08:12:14.208Z,2.30
2023-04-27T08:14:42.058Z,1.90
2023-04-27T08:17:09.915Z,2.30
2023-04-27T08:19:39.639Z,2.17
2023-04-27T08:22:07.478Z,2.47
2023-04-27T08:24:35.342Z,2.10
2023-04-27T08:27:04.282Z,2.03
2023-04-27T08:29:32.340Z,2.00
2023-04-27T08:32:02.264Z,2.17
2023-04-27T08:34:30.675Z,2.20
2023-04-27T08:37:00.294Z,2.10
2023-04-27T08:39:28.741Z,2.13
2023-04-27T08:41:56.824Z,2.10
2023-04-27T08:44:24.763Z,2.10
2023-04-27T08:46:52.734Z,1.80
2023-04-27T08:49:21.665Z,2.43
2023-04-27T08:51:50.794Z,2.53
2023-04-27T08:54:21.855Z,3.90
2023-04-27T08:56:50.998Z,7.33
2023-04-27T08:59:18.816Z,2.80
2023-04-27T09:01:49.326Z,1.73
2023-04-27T09:04:18.687Z,1.80
2023-04-27T09:06:46.854Z,2.20
2023-04-27T09:09:25.051Z,2.87
2023-04-27T09:11:52.995Z,2.30
2023-04-27T09:14:23.400Z,2.17
2023-04-27T09:16:58.004Z,1.90
2023-04-27T09:19:27.122Z,1.60
2023-04-27T09:22:04.780Z,1.60
2023-04-27T09:24:34.042Z,1.90
2023-04-27T09:27:03.186Z,2.40
2023-04-27T09:29:35.249Z,2.33
2023-04-27T09:32:03.605Z,1.73
2023-04-27T09:34:40.998Z,1.52
2023-04-27T09:37:09.867Z,2.10
2023-04-27T09:39:39.700Z,2.00
2023-04-27T09:42:08.443Z,2.30
2023-04-27T09:44:37.105Z,2.25
2023-04-27T09:47:05.920Z,2.63
2023-04-27T09:49:35.992Z,2.28
2023-04-27T09:52:04.079Z,2.00
2023-04-27T09:54:34.459Z,1.98
2023-04-27T09:57:15.449Z,2.28
2023-04-27T10:00:01.260Z,2.25
2023-04-27T10:02:33.112Z,2.38
2023-04-27T10:05:27.046Z,2.25
2023-04-27T10:07:55.152Z,2.63
2023-04-27T10:10:23.213Z,2.28
2023-04-27T10:13:01.788Z,2.47
2023-04-27T10:15:30.491Z,2.13
2023-04-27T10:18:06.338Z,2.40
2023-04-27T10:20:35.866Z,2.75
2023-04-27T10:23:04.144Z,3.17
2023-04-27T10:25:40.151Z,2.20
2023-04-27T10:28:09.457Z,2.20
2023-04-27T10:30:38.735Z,2.38
2023-04-27T10:33:08.369Z,2.60
2023-04-27T10:35:37.855Z,2.63
2023-04-27T10:38:09.423Z,2.72
2023-04-27T10:40:38.733Z,2.60
2023-04-27T10:43:12.916Z,2.50
2023-04-27T10:45:40.907Z,2.50
2023-04-27T10:48:09.473Z,2.70
2023-04-27T10:50:37.333Z,2.50
2023-04-27T10:53:06.563Z,2.80
2023-04-27T10:55:35.543Z,3.20
2023-04-27T10:58:04.355Z,2.50
2023-04-27T11:00:38.260Z,2.67
2023-04-27T11:03:15.564Z,3.00
2023-04-27T11:05:45.005Z,3.33
2023-04-27T11:08:16.035Z,2.58
2023-04-27T11:10:45.998Z,2.65
2023-04-27T11:13:16.039Z,2.92
2023-04-27T11:15:47.971Z,2.92
2023-04-27T11:18:17.189Z,3.20
2023-04-27T11:20:49.016Z,3.70
2023-04-27T11:23:25.901Z,3.28
2023-04-27T11:25:54.459Z,3.05
2023-04-27T11:28:22.760Z,2.92
2023-04-27T11:30:58.183Z,2.83
2023-04-27T11:33:26.280Z,3.47
2023-04-27T11:35:54.604Z,3.38
2023-04-27T11:38:22.746Z,3.15
2023-04-27T11:41:01.242Z,3.47
2023-04-27T11:43:30.017Z,3.85
2023-04-27T11:45:59.533Z,3.28
2023-04-27T11:48:29.008Z,3.22
2023-04-27T11:51:01.038Z,3.22
2023-04-27T11:53:33.791Z,3.40
2023-04-27T11:56:05.070Z,3.40
2023-04-27T11:58:35.912Z,3.42
2023-04-27T12:01:05.370Z,3.05
2023-04-27T12:03:33.621Z,3.67
2023-04-27T12:08:32.562Z,3.38
2023-04-27T12:11:00.394Z,3.40
2023-04-27T12:13:28.528Z,3.75
2023-04-27T12:15:57.317Z,3.30
2023-04-27T12:18:27.653Z,3.55
2023-04-27T12:20:55.452Z,3.75
2023-04-27T12:23:23.392Z,3.53
2023-04-27T12:25:51.692Z,3.42
2023-04-27T12:28:20.470Z,3.78
2023-04-27T12:30:49.796Z,3.70
2023-04-27T12:33:17.915Z,3.92
2023-04-27T12:35:47.728Z,3.50
2023-04-27T12:38:15.742Z,3.97
2023-04-27T12:40:44.187Z,3.50
2023-04-27T12:43:12.981Z,3.20
2023-04-27T12:45:41.069Z,3.55
2023-04-27T12:48:08.938Z,3.85
2023-04-27T12:50:38.830Z,3.80
2023-04-27T12:53:07.997Z,3.70
2023-04-27T12:55:36.799Z,3.22
2023-04-27T12:58:05.222Z,3.17
2023-04-27T13:00:34.172Z,3.72
2023-04-27T13:03:02.083Z,3.60
2023-04-27T13:05:31.904Z,3.25
2023-04-27T13:08:00.294Z,3.53
2023-04-27T13:10:29.919Z,3.00
2023-04-27T13:12:58.783Z,3.17
2023-04-27T13:15:26.606Z,3.72
2023-04-27T13:17:57.630Z,3.72
2023-04-27T13:20:25.565Z,3.10
2023-04-27T13:22:53.530Z,3.67
2023-04-27T13:25:21.508Z,3.42
2023-04-27T13:27:51.671Z,3.60
2023-04-27T13:30:21.974Z,3.50
2023-04-27T13:32:50.758Z,3.78
2023-04-27T13:35:18.785Z,3.25
2023-04-27T13:37:46.753Z,3.90
2023-04-27T13:40:15.305Z,3.72
2023-04-27T13:42:43.090Z,3.65
2023-04-27T13:45:13.041Z,3.85
2023-04-27T13:47:41.090Z,2.97
2023-04-27T13:50:10.857Z,2.88
2023-04-27T13:52:39.714Z,3.30
2023-04-27T13:55:10.602Z,3.58
2023-04-27T13:57:38.691Z,3.45
2023-04-27T14:00:11.682Z,3.78
2023-04-27T14:02:41.287Z,3.95
2023-04-27T14:05:09.725Z,3.42
2023-04-27T14:07:37.720Z,3.28
2023-04-27T14:10:06.894Z,3.25
2023-04-27T14:12:35.799Z,2.95
2023-04-27T14:15:05.189Z,3.40
2023-04-27T14:17:33.070Z,3.55
2023-04-27T14:20:02.322Z,3.53
2023-04-27T14:22:31.464Z,4.30
2023-04-27T14:24:59.294Z,3.53
2023-04-27T14:27:27.296Z,3.17
2023-04-27T14:29:55.248Z,3.17
2023-04-27T14:32:23.401Z,3.30
2023-04-27T14:34:51.509Z,3.33
2023-04-27T14:37:20.847Z,3.17
2023-04-27T14:39:48.885Z,3.20
2023-04-27T14:42:16.729Z,3.30
2023-04-27T14:44:44.540Z,3.53
2023-04-27T14:47:12.868Z,3.50
2023-04-27T14:49:41.287Z,3.55
2023-04-27T14:52:09.325Z,3.30
2023-04-27T14:54:41.525Z,3.20
2023-04-27T14:57:09.741Z,3.13
2023-04-27T14:59:37.527Z,2.97
2023-04-27T15:02:05.721Z,2.78
2023-04-27T15:04:35.348Z,1.98
2023-04-27T15:07:03.281Z,2.97
2023-04-27T15:09:31.200Z,2.60
2023-04-27T15:12:01.849Z,2.25
2023-04-27T15:14:29.895Z,2.60
2023-04-27T15:16:57.783Z,2.03
2023-04-27T15:19:26.033Z,2.25
2023-04-27T15:21:54.037Z,2.00
2023-04-27T15:24:22.061Z,2.05
2023-04-27T15:26:50.580Z,1.85
2023-04-27T15:29:19.909Z,2.17
2023-04-27T15:31:48.891Z,2.08
2023-04-27T15:34:16.924Z,2.13
2023-04-27T15:36:45.136Z,2.03
2023-04-27T15:39:13.518Z,1.98
2023-04-27T15:41:41.665Z,1.90
2023-04-27T15:44:09.567Z,2.28
2023-04-27T15:46:38.847Z,1.90
2023-04-27T15:49:07.091Z,2.08
2023-04-27T15:51:34.888Z,1.90
2023-04-27T15:54:02.966Z,1.90
2023-04-27T15:56:30.998Z,2.03
2023-04-27T15:58:59.194Z,2.10
2023-04-27T16:01:27.587Z,1.70
2023-04-27T16:03:57.030Z,2.20
2023-04-27T16:06:31.640Z,1.70
2023-04-27T16:08:59.670Z,1.90
2023-04-27T16:11:27.517Z,1.80
2023-04-27T16:13:55.452Z,1.90
2023-04-27T16:16:23.373Z,2.40
2023-04-27T16:18:51.261Z,2.78
2023-04-27T16:21:20.619Z,2.55
2023-04-27T16:23:48.771Z,2.20
2023-04-27T16:26:16.784Z,2.22
2023-04-27T16:28:44.579Z,2.17
2023-04-27T16:31:13.498Z,2.63
2023-04-27T16:33:41.619Z,2.42
2023-04-27T16:36:11.551Z,2.47
2023-04-27T16:38:40.914Z,2.28
2023-04-27T16:41:09.154Z,2.25
2023-04-27T16:43:37.044Z,2.80
2023-04-27T16:46:05.135Z,2.30
2023-04-27T16:48:33.046Z,2.60
2023-04-27T16:51:01.075Z,2.38
2023-04-27T16:53:28.991Z,2.72
2023-04-27T16:56:00.730Z,2.50
2023-04-27T16:58:29.390Z,2.50
2023-04-27T17:00:57.923Z,2.65
2023-04-27T17:03:26.878Z,2.65
2023-04-27T17:05:54.724Z,2.83
2023-04-27T17:08:22.561Z,2.58
2023-04-27T17:10:50.846Z,2.67
2023-04-27T17:13:20.079Z,2.95
2023-04-27T17:15:48.174Z,3.25
2023-04-27T17:18:16.137Z,3.38
2023-04-27T17:20:44.297Z,3.60
2023-04-27T17:23:12.575Z,4.22
2023-04-27T17:25:41.373Z,3.70
2023-04-27T17:28:09.280Z,3.47
2023-04-27T17:30:38.567Z,3.55
2023-04-27T17:33:06.775Z,3.83
2023-04-27T17:35:34.670Z,4.13
2023-04-27T17:38:02.713Z,3.45
2023-04-27T17:40:31.746Z,2.97
2023-04-27T17:43:00.170Z,3.30
2023-04-27T17:45:28.997Z,3.55
2023-04-27T17:47:58.357Z,3.78
2023-04-27T17:50:26.882Z,3.67
2023-04-27T17:52:55.071Z,3.67
2023-04-27T17:55:23.211Z,3.15
2023-04-27T17:57:51.520Z,4.15
2023-04-27T18:00:19.964Z,3.92
2023-04-27T18:02:49.882Z,3.72
2023-04-27T18:05:19.368Z,3.22
2023-04-27T18:07:47.597Z,4.50
2023-04-27T18:10:15.772Z,3.50
2023-04-27T18:12:44.142Z,4.55
2023-04-27T18:15:12.937Z,9.35
2023-04-27T18:17:41.069Z,9.10
2023-04-27T18:20:10.770Z,6.40
2023-04-27T18:22:41.264Z,5.25
2023-04-27T18:25:10.887Z,5.47
2023-04-27T18:27:38.918Z,7.88
2023-04-27T18:30:08.771Z,10.70
2023-04-27T18:32:37.003Z,6.32
2023-04-27T18:35:06.316Z,5.90
2023-04-27T18:37:34.114Z,5.25
2023-04-27T18:40:05.803Z,4.50
2023-04-27T18:42:33.681Z,4.68
2023-04-27T18:45:01.863Z,6.03
2023-04-27T18:47:29.810Z,6.85
2023-04-27T18:49:57.643Z,6.30
2023-04-27T18:52:25.529Z,6.50
2023-04-27T18:54:53.366Z,5.25
2023-04-27T18:57:22.669Z,4.55
2023-04-27T18:59:50.732Z,4.63
2023-04-27T19:02:18.660Z,4.70
2023-04-27T19:04:52.846Z,4.22
2023-04-27T19:07:29.882Z,4.40
2023-04-27T19:09:57.692Z,4.05
2023-04-27T19:12:27.066Z,4.93
2023-04-27T19:14:55.026Z,3.90
2023-04-27T19:17:23.154Z,3.85
2023-04-27T19:19:51.343Z,3.67
2023-04-27T19:22:19.197Z,4.07
2023-04-27T19:24:47.003Z,4.75
2023-04-27T19:27:14.905Z,5.25
2023-04-27T19:29:55.207Z,4.10
2023-04-27T19:32:25.227Z,4.45
2023-04-27T19:34:53.482Z,4.03
2023-04-27T19:37:21.793Z,4.30
2023-04-27T19:39:49.947Z,4.28
2023-04-27T19:42:17.807Z,4.20
2023-04-27T19:44:45.932Z,3.40
2023-04-27T19:47:15.858Z,3.70
2023-04-27T19:49:43.660Z,4.13
2023-04-27T19:52:11.550Z,3.75
2023-04-27T19:54:39.416Z,3.60
2023-04-27T19:57:07.245Z,4.22
2023-04-27T19:59:35.126Z,3.95
2023-04-27T20:02:03.045Z,3.67
2023-04-27T20:04:32.880Z,4.32
2023-04-27T20:07:01.165Z,3.88
2023-04-27T20:09:29.011Z,3.83
2023-04-27T20:11:56.854Z,3.72
2023-04-27T20:14:24.941Z,3.97
2023-04-27T20:16:52.985Z,3.80
2023-04-27T20:19:22.562Z,4.03
2023-04-27T20:21:51.786Z,3.90
2023-04-27T20:24:19.711Z,4.18
2023-04-27T20:26:47.576Z,4.30
2023-04-27T20:29:16.015Z,3.80
2023-04-27T20:31:44.813Z,4.80
2023-04-27T20:34:13.598Z,4.70
2023-04-27T20:36:41.692Z,4.50
2023-04-27T20:39:11.897Z,5.03
2023-04-27T20:41:41.907Z,4.85
2023-04-27T20:44:10.510Z,5.30
2023-04-27T20:46:38.937Z,4.85
2023-04-27T20:49:06.990Z,4.60
2023-04-27T20:51:34.808Z,4.55
2023-04-27T20:54:02.772Z,3.72
2023-04-27T20:56:32.917Z,3.90
2023-04-27T20:59:00.900Z,3.50
2023-04-27T21:01:28.783Z,3.83
2023-04-27T21:03:56.800Z,3.70
2023-04-27T21:06:24.711Z,3.77
2023-04-27T21:08:52.649Z,3.50
2023-04-27T21:11:21.175Z,3.42
2023-04-27T21:13:50.596Z,3.17
2023-04-27T21:16:18.449Z,3.60
2023-04-27T21:18:46.395Z,3.73
2023-04-27T21:21:14.338Z,3.47
2023-04-27T21:23:42.117Z,3.45
2023-04-27T21:26:10.761Z,3.85
2023-04-27T21:28:40.167Z,3.80
2023-04-27T21:31:09.627Z,4.00
2023-04-27T21:33:38.082Z,3.47
2023-04-27T21:36:09.620Z,3.25
2023-04-27T21:38:37.461Z,3.53
2023-04-27T21:41:05.271Z,4.00
2023-04-27T21:43:33.106Z,3.67
2023-04-27T21:46:01.215Z,4.00
2023-04-27T21:48:30.363Z,3.80
2023-04-27T21:50:58.248Z,4.23
2023-04-27T21:53:26.332Z,3.53
2023-04-27T21:55:57.108Z,3.70
2023-04-27T21:58:24.995Z,3.90
2023-04-27T22:00:52.818Z,3.97
2023-04-27T22:03:21.566Z,3.90
2023-04-27T22:05:52.748Z,3.95
2023-04-27T22:08:21.698Z,3.77
2023-04-27T22:10:49.792Z,3.50
2023-04-27T22:13:19.441Z,3.40
2023-04-27T22:15:48.591Z,3.67
2023-04-27T22:18:16.519Z,3.67
2023-04-27T22:20:44.678Z,3.60
2023-04-27T22:23:14.450Z,3.63
2023-04-27T22:25:43.371Z,4.20
2023-04-27T22:28:11.566Z,3.97
2023-04-27T22:30:40.853Z,4.57
2023-04-27T22:33:09.262Z,3.70
2023-04-27T22:35:38.297Z,4.30
2023-04-27T22:38:06.986Z,3.63
2023-04-27T22:40:36.267Z,4.43
2023-04-27T22:43:04.178Z,3.97
2023-04-27T22:45:32.043Z,4.40
2023-04-27T22:47:59.917Z,4.07
2023-04-27T22:50:27.745Z,4.35
2023-04-27T22:52:55.572Z,4.13
2023-04-27T22:55:23.454Z,4.23
2023-04-27T22:57:53.878Z,3.97
2023-04-27T23:00:22.369Z,4.63
2023-04-27T23:02:50.647Z,4.10
2023-04-27T23:05:18.650Z,4.17
2023-04-27T23:07:46.599Z,4.23
2023-04-27T23:10:15.067Z,4.23
2023-04-27T23:12:42.919Z,4.40
2023-04-27T23:15:12.865Z,4.37
2023-04-27T23:17:41.191Z,3.57
2023-04-27T23:20:24.242Z,5.03
2023-04-27T23:22:55.785Z,4.23
2023-04-27T23:25:23.722Z,3.80
2023-04-27T23:27:52.745Z,4.30
2023-04-27T23:30:23.207Z,4.57
2023-04-27T23:32:51.149Z,3.60
2023-04-27T23:35:19.221Z,4.67
2023-04-27T23:37:47.257Z,3.90
2023-04-27T23:40:15.544Z,4.37
2023-04-27T23:42:43.494Z,4.40
2023-04-27T23:45:12.536Z,4.40
2023-04-27T23:47:42.145Z,4.40
2023-04-27T23:50:10.632Z,4.83
2023-04-27T23:52:38.472Z,4.17
2023-04-27T23:55:07.346Z,4.27
2023-04-27T23:57:35.149Z,4.03
